Time;durP1;ratioP1;P1;durP2;ratioP2;P2;SDS_P1;SDS_P2;PMS_P1;PMS_P2;Temp;Humidity;BMP_temperature;BMP_pressure;BME280_temperature;BME280_humidity;BME280_pressure;Samples;Min_cycle;Max_cycle;Signal;HPM_P1;HPM_P2
2023/03/01 00:00:27;;;;;;;20.30;14.33;;;0.40;99.90;;;;;;5028607;28;20190;-71
2023/03/01 00:02:53;;;;;;;17.37;13.33;;;0.60;99.90;;;;;;5026494;28;20183;-70
2023/03/01 00:05:19;;;;;;;16.17;12.60;;;0.30;99.90;;;;;;5028579;28;20278;-70
2023/03/01 00:07:44;;;;;;;17.13;12.80;;;0.50;99.90;;;;;;5026834;28;20190;-69
2023/03/01 00:10:10;;;;;;;17.77;12.77;;;0.50;99.90;;;;;;5027511;28;20194;-70
2023/03/01 00:12:36;;;;;;;16.10;13.27;;;0.30;99.90;;;;;;5029504;28;20190;-70
2023/03/01 00:15:04;;;;;;;19.20;14.13;;;0.40;99.90;;;;;;5032102;28;20235;-70
2023/03/01 00:17:30;;;;;;;17.45;13.40;;;0.60;99.90;;;;;;5027588;28;20277;-70
2023/03/01 00:19:55;;;;;;;16.40;12.60;;;0.70;99.90;;;;;;5030697;28;20289;-70
2023/03/01 00:22:21;;;;;;;20.63;13.30;;;0.50;99.90;;;;;;5031289;28;20205;-70
2023/03/01 00:24:47;;;;;;;22.20;12.67;;;0.70;99.90;;;;;;5030945;28;20248;-70
2023/03/01 00:27:12;;;;;;;17.37;13.60;;;0.00;99.90;;;;;;5028340;28;20190;-70
2023/03/01 00:29:38;;;;;;;16.47;12.63;;;0.40;99.90;;;;;;5029645;28;20216;-70
2023/03/01 00:32:04;;;;;;;19.03;13.27;;;0.10;99.90;;;;;;5029277;28;20190;-70
2023/03/01 00:34:29;;;;;;;18.87;14.13;;;0.40;99.90;;;;;;5029384;28;20210;-70
2023/03/01 00:36:55;;;;;;;19.30;13.73;;;0.50;99.90;;;;;;5025645;28;21112;-69
2023/03/01 00:39:21;;;;;;;19.40;13.53;;;1.00;99.90;;;;;;5027351;28;20210;-70
2023/03/01 00:41:46;;;;;;;18.87;13.13;;;0.60;99.90;;;;;;5027993;28;20837;-69
2023/03/01 00:44:12;;;;;;;17.83;13.00;;;0.30;99.90;;;;;;5031189;28;20197;-69
2023/03/01 00:46:38;;;;;;;18.40;14.30;;;0.30;99.90;;;;;;5031769;28;20269;-70
2023/03/01 00:49:04;;;;;;;19.27;12.67;;;0.30;99.90;;;;;;5027363;28;20706;-69
2023/03/01 00:51:30;;;;;;;16.50;13.45;;;0.40;99.90;;;;;;5027917;28;20538;-71
2023/03/01 00:53:59;;;;;;;19.07;13.00;;;0.20;99.90;;;;;;5028884;28;20690;-70
2023/03/01 00:56:25;;;;;;;21.90;13.80;;;0.20;99.90;;;;;;5035027;28;20447;-69
2023/03/01 00:58:51;;;;;;;18.75;13.07;;;0.10;99.90;;;;;;5036446;28;20234;-69
2023/03/01 01:01:19;;;;;;;15.60;11.83;;;0.20;99.90;;;;;;5036115;28;20239;-70
2023/03/01 01:03:54;;;;;;;17.63;12.55;;;0.20;99.90;;;;;;5034681;28;20543;-69
2023/03/01 01:06:22;;;;;;;16.73;12.70;;;0.00;99.90;;;;;;5037249;28;20691;-70
2023/03/01 01:08:49;;;;;;;19.13;12.55;;;0.00;99.90;;;;;;5034970;28;20672;-70
2023/03/01 01:11:15;;;;;;;19.92;13.98;;;-0.60;99.90;;;;;;5034780;28;20193;-70
2023/03/01 01:13:41;;;;;;;20.10;13.35;;;-0.10;99.90;;;;;;5039562;28;20210;-70
2023/03/01 01:16:08;;;;;;;16.38;13.13;;;0.10;99.90;;;;;;5035688;28;20236;-70
2023/03/01 01:18:33;;;;;;;17.50;12.57;;;0.00;99.90;;;;;;5036134;28;20202;-70
2023/03/01 01:21:11;;;;;;;19.17;13.63;;;0.00;99.90;;;;;;5036789;28;20193;-69
2023/03/01 01:23:38;;;;;;;16.85;12.27;;;0.10;99.90;;;;;;5032558;28;20859;-70
2023/03/01 01:26:08;;;;;;;17.65;12.63;;;0.30;99.90;;;;;;5035806;28;20214;-70
2023/03/01 01:28:34;;;;;;;17.13;12.40;;;0.80;99.90;;;;;;5035613;28;20367;-70
2023/03/01 01:31:00;;;;;;;18.92;13.65;;;0.70;99.90;;;;;;5036513;28;20280;-70
2023/03/01 01:33:26;;;;;;;18.70;13.90;;;-0.20;99.90;;;;;;5037117;28;20251;-69
2023/03/01 01:35:52;;;;;;;17.77;12.55;;;0.20;99.90;;;;;;5035791;28;20338;-69
2023/03/01 01:38:18;;;;;;;18.67;13.30;;;0.00;99.90;;;;;;5032385;28;20301;-69
2023/03/01 01:40:45;;;;;;;18.67;12.90;;;0.20;99.90;;;;;;5036499;28;20470;-69
2023/03/01 01:43:41;;;;;;;14.93;12.35;;;0.20;99.90;;;;;;5034758;28;20193;-69
2023/03/01 01:46:30;;;;;;;18.13;12.52;;;-0.10;99.90;;;;;;5029547;28;20201;-70
2023/03/01 01:49:15;;;;;;;18.75;12.55;;;0.10;99.90;;;;;;5035317;28;20214;-69
2023/03/01 01:51:44;;;;;;;18.42;14.02;;;0.50;99.90;;;;;;5033203;28;20886;-69
2023/03/01 01:54:23;;;;;;;16.92;12.50;;;0.10;99.90;;;;;;5035457;28;20214;-69
2023/03/01 01:56:56;;;;;;;18.98;13.23;;;0.30;99.90;;;;;;5033544;28;20259;-69
2023/03/01 01:59:24;;;;;;;16.38;12.45;;;0.30;99.90;;;;;;5035200;28;20202;-70
2023/03/01 02:01:52;;;;;;;16.58;12.55;;;0.40;99.90;;;;;;5031903;28;20886;-70
2023/03/01 02:04:17;;;;;;;17.25;11.98;;;0.60;99.90;;;;;;5033936;28;20196;-70
2023/03/01 02:06:54;;;;;;;18.00;13.10;;;0.70;99.90;;;;;;5034078;28;21683;-70
2023/03/01 02:09:22;;;;;;;17.95;12.45;;;0.10;99.90;;;;;;5026845;28;20471;-69
2023/03/01 02:11:50;;;;;;;17.48;12.65;;;0.70;99.90;;;;;;5032109;28;20277;-69
2023/03/01 02:14:16;;;;;;;18.40;13.40;;;0.70;99.90;;;;;;5030255;28;20638;-70
2023/03/01 02:16:42;;;;;;;16.60;12.77;;;0.40;99.90;;;;;;5030097;28;20563;-70
2023/03/01 02:19:13;;;;;;;16.90;11.75;;;0.50;99.90;;;;;;5031909;28;20198;-70
2023/03/01 02:21:54;;;;;;;15.25;11.30;;;0.80;99.90;;;;;;5031500;28;20190;-70
2023/03/01 02:24:37;;;;;;;17.40;12.45;;;1.40;99.90;;;;;;5026241;28;20210;-70
2023/03/01 02:27:03;;;;;;;16.55;11.90;;;1.00;99.90;;;;;;5032938;28;20738;-70
2023/03/01 02:29:29;;;;;;;16.80;12.30;;;1.30;99.90;;;;;;5030504;28;20214;-70
2023/03/01 02:31:58;;;;;;;15.60;11.53;;;1.50;99.90;;;;;;5033801;28;20187;-70
2023/03/01 02:34:25;;;;;;;15.07;11.77;;;1.70;99.90;;;;;;5031557;28;20210;-71
2023/03/01 02:36:57;;;;;;;16.90;12.02;;;1.60;99.90;;;;;;5029110;28;20178;-70
2023/03/01 02:39:36;;;;;;;16.40;13.00;;;2.00;99.90;;;;;;5030030;28;20202;-70
2023/03/01 02:42:04;;;;;;;16.80;11.43;;;1.70;99.90;;;;;;5029417;28;20187;-70
2023/03/01 02:44:29;;;;;;;17.15;13.70;;;1.70;99.90;;;;;;5033297;28;20281;-70
2023/03/01 02:46:57;;;;;;;14.70;10.80;;;1.30;99.90;;;;;;5030145;28;20265;-71
2023/03/01 02:49:27;;;;;;;15.15;12.02;;;1.80;99.90;;;;;;5028432;28;20201;-70
2023/03/01 02:52:08;;;;;;;17.38;12.45;;;1.30;99.90;;;;;;5028880;28;20277;-71
2023/03/01 02:54:43;;;;;;;17.13;12.45;;;2.10;99.90;;;;;;5029205;28;20204;-70
2023/03/01 02:57:09;;;;;;;17.60;12.70;;;2.00;99.70;;;;;;5031445;28;20228;-70
2023/03/01 02:59:39;;;;;;;17.38;12.43;;;1.90;99.90;;;;;;5029715;28;20198;-70
2023/03/01 03:02:06;;;;;;;16.63;13.30;;;2.00;99.90;;;;;;5030558;28;20692;-71
2023/03/01 03:04:31;;;;;;;16.67;12.85;;;2.20;99.90;;;;;;5032693;28;20673;-70
2023/03/01 03:06:57;;;;;;;15.33;12.43;;;1.90;99.90;;;;;;5030878;28;20273;-70
2023/03/01 03:09:23;;;;;;;17.73;13.40;;;2.00;99.90;;;;;;5028970;28;20206;-70
2023/03/01 03:11:48;;;;;;;19.00;13.50;;;2.00;99.90;;;;;;5031768;28;20186;-70
2023/03/01 03:14:16;;;;;;;16.27;12.10;;;1.70;99.30;;;;;;5030167;28;20214;-71
2023/03/01 03:16:47;;;;;;;15.63;13.00;;;2.10;99.60;;;;;;5028434;28;20464;-70
2023/03/01 03:19:13;;;;;;;18.55;12.65;;;2.50;99.70;;;;;;5029674;28;20202;-70
2023/03/01 03:21:39;;;;;;;16.47;11.80;;;1.50;99.00;;;;;;5032268;28;20855;-70
2023/03/01 03:24:05;;;;;;;18.00;12.90;;;1.60;99.60;;;;;;5030153;28;20816;-70
2023/03/01 03:26:30;;;;;;;19.05;13.13;;;2.00;99.90;;;;;;5030432;28;20202;-70
2023/03/01 03:28:56;;;;;;;14.83;12.30;;;2.00;99.80;;;;;;5031495;28;20279;-70
2023/03/01 03:31:22;;;;;;;16.58;12.65;;;1.90;99.90;;;;;;5029638;28;20218;-70
2023/03/01 03:33:48;;;;;;;18.83;13.52;;;2.10;99.90;;;;;;5032870;28;20211;-70
2023/03/01 03:36:18;;;;;;;17.67;13.43;;;2.20;99.60;;;;;;5030476;28;20670;-70
2023/03/01 03:38:45;;;;;;;17.63;13.13;;;2.20;99.60;;;;;;5028464;28;20198;-70
2023/03/01 03:41:11;;;;;;;17.75;13.05;;;2.60;99.60;;;;;;5029540;28;20185;-70
2023/03/01 03:43:40;;;;;;;16.33;13.05;;;2.20;99.20;;;;;;5028924;28;20236;-70
2023/03/01 03:46:06;;;;;;;18.95;12.73;;;2.20;99.30;;;;;;5029879;28;20225;-70
2023/03/01 03:48:37;;;;;;;17.85;12.88;;;2.40;99.60;;;;;;5029370;28;20312;-70
2023/03/01 03:51:05;;;;;;;18.80;13.48;;;2.40;99.50;;;;;;5029826;28;20278;-70
2023/03/01 03:53:31;;;;;;;18.17;13.65;;;2.30;99.20;;;;;;5029753;28;20209;-70
2023/03/01 03:55:58;;;;;;;17.52;13.45;;;2.20;98.90;;;;;;5032427;28;20198;-70
2023/03/01 03:58:25;;;;;;;19.05;13.68;;;2.00;99.60;;;;;;5029561;28;20207;-71
2023/03/01 04:00:53;;;;;;;17.00;12.70;;;1.70;99.40;;;;;;5028651;28;20198;-70
2023/03/01 04:03:20;;;;;;;18.77;13.45;;;1.60;99.30;;;;;;5028164;28;20558;-70
2023/03/01 04:05:46;;;;;;;18.55;13.50;;;2.10;99.50;;;;;;5028704;28;20225;-70
2023/03/01 04:08:12;;;;;;;18.65;14.02;;;2.50;99.20;;;;;;5028553;28;20212;-70
2023/03/01 04:10:40;;;;;;;22.53;14.30;;;1.80;98.90;;;;;;5028003;28;20178;-70
2023/03/01 04:13:09;;;;;;;17.67;13.45;;;2.10;98.90;;;;;;5028953;28;20437;-69
2023/03/01 04:15:35;;;;;;;15.88;13.18;;;2.00;99.00;;;;;;5032922;28;20182;-70
2023/03/01 04:18:01;;;;;;;18.40;12.73;;;2.50;99.10;;;;;;5029168;28;20203;-69
2023/03/01 04:20:29;;;;;;;18.93;13.70;;;2.10;99.10;;;;;;5032292;28;20188;-70
2023/03/01 04:23:13;;;;;;;17.27;12.80;;;2.60;99.40;;;;;;5028452;28;20443;-71
2023/03/01 04:25:40;;;;;;;20.92;14.52;;;2.30;99.10;;;;;;5028064;28;20183;-70
2023/03/01 04:28:06;;;;;;;18.35;14.10;;;2.60;99.10;;;;;;5029551;28;20280;-70
2023/03/01 04:30:35;;;;;;;17.92;13.23;;;2.40;99.00;;;;;;5025337;28;20226;-70
2023/03/01 04:33:06;;;;;;;23.40;14.05;;;2.40;98.90;;;;;;5028005;28;20187;-69
2023/03/01 04:35:32;;;;;;;19.60;15.02;;;2.40;99.20;;;;;;5029095;28;20186;-70
2023/03/01 04:37:58;;;;;;;18.15;13.20;;;2.20;99.20;;;;;;5027234;28;20211;-70
2023/03/01 04:40:24;;;;;;;18.70;14.13;;;2.10;99.20;;;;;;5027463;28;20178;-70
2023/03/01 04:42:50;;;;;;;20.50;13.80;;;2.10;99.40;;;;;;5031461;28;20443;-70
2023/03/01 04:45:16;;;;;;;14.97;11.70;;;1.80;99.40;;;;;;5029674;28;22320;-70
2023/03/01 04:47:44;;;;;;;21.43;14.40;;;1.90;99.30;;;;;;5027224;28;20198;-70
2023/03/01 04:50:10;;;;;;;18.40;13.85;;;1.90;99.90;;;;;;5029420;28;20222;-69
2023/03/01 04:52:36;;;;;;;19.17;13.95;;;2.00;99.90;;;;;;5029404;28;20699;-70
2023/03/01 04:55:03;;;;;;;17.58;13.50;;;2.00;99.70;;;;;;5027783;28;20241;-70
2023/03/01 04:57:29;;;;;;;19.65;14.38;;;2.10;99.70;;;;;;5029507;28;20195;-70
2023/03/01 04:59:54;;;;;;;22.05;14.00;;;2.10;99.80;;;;;;5029977;28;20202;-70
2023/03/01 05:02:20;;;;;;;18.60;13.17;;;2.60;99.90;;;;;;5026716;28;20600;-69
2023/03/01 05:04:46;;;;;;;16.57;13.20;;;2.50;99.70;;;;;;5027901;28;20185;-70
2023/03/01 05:07:12;;;;;;;19.20;14.17;;;2.20;99.50;;;;;;5026068;28;20232;-70
2023/03/01 05:09:38;;;;;;;16.35;12.40;;;2.20;99.10;;;;;;5025032;28;20240;-70
2023/03/01 05:12:04;;;;;;;17.07;13.30;;;2.70;99.90;;;;;;5021493;28;20766;-70
2023/03/01 05:14:30;;;;;;;18.17;14.05;;;2.00;99.50;;;;;;5021412;28;20989;-68
2023/03/01 05:17:03;;;;;;;20.33;14.17;;;1.40;99.30;;;;;;5026531;28;20193;-68
2023/03/01 05:19:30;;;;;;;16.83;12.88;;;2.00;99.70;;;;;;5023370;28;20234;-67
2023/03/01 05:22:05;;;;;;;18.75;13.73;;;1.50;99.40;;;;;;5026534;28;20186;-67
2023/03/01 05:24:34;;;;;;;19.23;13.70;;;2.00;99.90;;;;;;5024719;28;20671;-71
2023/03/01 05:27:01;;;;;;;17.27;13.23;;;2.00;99.90;;;;;;5026614;28;20206;-68
2023/03/01 05:29:29;;;;;;;16.90;12.85;;;2.20;99.90;;;;;;5023551;28;20206;-68
2023/03/01 05:31:55;;;;;;;18.52;13.38;;;2.20;99.90;;;;;;5026788;28;20237;-69
2023/03/01 05:34:30;;;;;;;16.42;12.95;;;2.20;99.90;;;;;;5027585;28;20210;-68
2023/03/01 05:36:56;;;;;;;17.00;13.60;;;2.50;99.90;;;;;;5025946;28;20182;-68
2023/03/01 05:39:24;;;;;;;17.35;13.88;;;2.40;99.60;;;;;;5028093;28;20198;-66
2023/03/01 05:41:58;;;;;;;19.77;14.00;;;2.80;99.60;;;;;;5027821;28;20266;-66
2023/03/01 05:44:25;;;;;;;21.63;14.57;;;2.80;99.40;;;;;;5028243;28;20293;-67
2023/03/01 05:46:51;;;;;;;17.60;14.10;;;2.10;98.80;;;;;;5026721;28;20221;-66
2023/03/01 05:49:17;;;;;;;18.17;13.20;;;2.50;99.20;;;;;;5028939;28;20267;-66
2023/03/01 05:51:47;;;;;;;19.23;13.70;;;3.00;99.30;;;;;;5031588;28;22082;-67
2023/03/01 05:54:13;;;;;;;18.63;13.60;;;2.40;99.10;;;;;;5029143;28;21710;-67
2023/03/01 05:56:38;;;;;;;22.97;14.90;;;3.10;99.20;;;;;;5029492;28;20179;-67
2023/03/01 05:59:05;;;;;;;19.30;13.97;;;2.60;99.40;;;;;;5030223;28;20202;-68
2023/03/01 06:01:32;;;;;;;19.63;14.55;;;2.70;99.10;;;;;;5028737;28;20214;-66
2023/03/01 06:03:57;;;;;;;19.23;15.07;;;2.80;99.20;;;;;;5026062;28;20547;-66
2023/03/01 06:06:24;;;;;;;18.07;13.93;;;3.00;99.00;;;;;;5030920;28;20265;-67
2023/03/01 06:08:50;;;;;;;19.08;12.98;;;2.70;98.20;;;;;;5029165;28;20897;-67
2023/03/01 06:11:16;;;;;;;19.25;13.45;;;2.80;98.40;;;;;;5031251;28;20193;-67
2023/03/01 06:13:43;;;;;;;18.90;14.30;;;2.20;98.40;;;;;;5030342;28;20812;-66
2023/03/01 06:16:09;;;;;;;19.15;14.25;;;2.90;98.50;;;;;;5029412;28;20777;-66
2023/03/01 06:18:35;;;;;;;19.05;13.15;;;3.50;99.10;;;;;;5029208;28;20214;-66
2023/03/01 06:21:01;;;;;;;20.10;14.57;;;3.00;98.70;;;;;;5030933;28;20193;-66
2023/03/01 06:23:27;;;;;;;22.40;14.60;;;3.30;98.40;;;;;;5027070;28;20187;-66
2023/03/01 06:25:53;;;;;;;19.30;14.50;;;3.10;98.10;;;;;;5031255;28;20218;-66
2023/03/01 06:28:18;;;;;;;19.40;13.57;;;2.90;98.30;;;;;;5031425;28;20246;-67
2023/03/01 06:30:44;;;;;;;19.33;14.07;;;2.80;98.30;;;;;;5025933;28;20454;-67
2023/03/01 06:33:10;;;;;;;19.60;13.53;;;2.30;98.20;;;;;;5028729;28;20286;-66
2023/03/01 06:35:36;;;;;;;20.17;13.57;;;2.90;98.70;;;;;;5030306;28;20659;-66
2023/03/01 06:38:03;;;;;;;19.97;13.47;;;2.80;98.40;;;;;;5027999;28;20205;-65
2023/03/01 06:40:31;;;;;;;19.20;14.82;;;2.60;98.50;;;;;;5027327;28;20453;-64
2023/03/01 06:42:57;;;;;;;19.80;14.45;;;2.70;98.70;;;;;;5022505;28;20215;-64
2023/03/01 06:45:23;;;;;;;19.42;14.40;;;3.00;98.80;;;;;;5029455;28;20187;-64
2023/03/01 06:47:49;;;;;;;20.63;14.03;;;2.80;98.00;;;;;;5028815;28;20198;-64
2023/03/01 06:50:16;;;;;;;16.98;13.68;;;2.90;98.50;;;;;;5028682;28;20193;-64
2023/03/01 06:52:43;;;;;;;19.23;12.88;;;2.80;98.40;;;;;;5025902;28;20755;-64
2023/03/01 06:55:09;;;;;;;22.02;13.80;;;2.80;98.30;;;;;;5025634;28;20218;-64
2023/03/01 06:57:35;;;;;;;18.07;14.17;;;2.80;97.80;;;;;;5026461;28;20182;-64
2023/03/01 07:00:00;;;;;;;19.17;14.47;;;2.70;98.20;;;;;;5024971;28;20191;-64
2023/03/01 07:02:26;;;;;;;23.60;14.47;;;2.40;98.30;;;;;;5025436;28;20239;-64
2023/03/01 07:04:52;;;;;;;19.30;15.00;;;2.80;98.40;;;;;;5029230;28;20194;-64
2023/03/01 07:07:18;;;;;;;22.90;14.98;;;3.20;98.30;;;;;;5027215;28;20324;-63
2023/03/01 07:09:48;;;;;;;17.55;13.57;;;3.20;97.80;;;;;;5027591;28;20214;-64
2023/03/01 07:12:14;;;;;;;19.55;14.88;;;2.60;97.20;;;;;;5026609;28;20183;-64
2023/03/01 07:14:40;;;;;;;20.53;14.10;;;3.10;97.30;;;;;;5024970;28;20228;-64
2023/03/01 07:17:06;;;;;;;24.30;15.87;;;3.10;97.50;;;;;;5029466;28;20195;-64
2023/03/01 07:19:32;;;;;;;18.25;14.63;;;3.10;98.20;;;;;;5028520;28;20485;-63
2023/03/01 07:21:57;;;;;;;20.93;14.60;;;3.30;97.70;;;;;;5029531;28;20293;-65
2023/03/01 07:24:23;;;;;;;22.80;15.37;;;3.20;97.30;;;;;;5026497;28;20190;-64
2023/03/01 07:26:50;;;;;;;17.60;14.73;;;3.20;97.50;;;;;;5029230;28;20213;-63
2023/03/01 07:29:16;;;;;;;21.02;14.73;;;2.70;97.50;;;;;;5028392;28;20205;-67
2023/03/01 07:31:42;;;;;;;19.48;13.45;;;2.60;98.00;;;;;;5024594;28;20667;-65
2023/03/01 07:34:07;;;;;;;18.50;14.20;;;2.40;98.60;;;;;;5027928;28;20243;-65
2023/03/01 07:36:33;;;;;;;21.30;15.60;;;2.80;98.70;;;;;;5029333;28;20190;-65
2023/03/01 07:39:02;;;;;;;20.33;15.73;;;2.70;98.70;;;;;;5030158;28;20206;-65
2023/03/01 07:41:28;;;;;;;17.77;13.80;;;2.20;98.10;;;;;;5028238;28;20555;-66
2023/03/01 07:43:53;;;;;;;22.00;14.68;;;3.10;98.60;;;;;;5029393;28;20522;-68
2023/03/01 07:46:19;;;;;;;20.13;15.53;;;2.90;98.10;;;;;;5028782;28;20183;-68
2023/03/01 07:48:44;;;;;;;23.23;15.50;;;3.00;97.90;;;;;;5029057;28;20220;-68
2023/03/01 07:51:10;;;;;;;17.20;13.37;;;2.50;97.40;;;;;;5031353;28;20191;-68
2023/03/01 07:53:36;;;;;;;20.87;14.30;;;3.00;97.60;;;;;;5026866;28;20750;-66
2023/03/01 07:56:06;;;;;;;18.80;14.17;;;3.40;98.20;;;;;;5028860;28;20576;-66
2023/03/01 07:58:35;;;;;;;20.50;14.88;;;3.30;97.40;;;;;;5022921;28;20211;-67
2023/03/01 08:01:02;;;;;;;21.92;14.93;;;3.40;97.70;;;;;;5029160;28;20189;-67
2023/03/01 08:03:28;;;;;;;23.45;17.20;;;2.90;96.90;;;;;;5026097;28;20270;-67
2023/03/01 08:05:54;;;;;;;19.87;14.80;;;3.30;97.20;;;;;;5028119;28;20258;-67
2023/03/01 08:08:20;;;;;;;21.90;15.37;;;3.40;97.60;;;;;;5026339;28;20530;-68
2023/03/01 08:10:45;;;;;;;22.93;15.10;;;3.50;96.80;;;;;;5021416;28;20240;-67
2023/03/01 08:13:11;;;;;;;19.73;14.33;;;3.70;96.80;;;;;;5028619;28;20184;-66
2023/03/01 08:15:36;;;;;;;17.70;13.57;;;3.70;97.90;;;;;;5024658;28;20197;-67
2023/03/01 08:18:02;;;;;;;20.60;16.00;;;3.80;96.50;;;;;;5015993;28;20440;-64
2023/03/01 08:20:28;;;;;;;24.37;16.53;;;3.70;96.70;;;;;;5023269;28;20185;-64
2023/03/01 08:22:53;;;;;;;22.87;16.47;;;4.10;96.10;;;;;;5031833;28;20223;-64
2023/03/01 08:25:19;;;;;;;19.63;15.40;;;3.80;96.20;;;;;;5026065;28;20455;-64
2023/03/01 08:27:44;;;;;;;20.87;15.17;;;3.50;95.60;;;;;;5025915;28;20275;-66
2023/03/01 08:30:11;;;;;;;20.67;15.10;;;3.50;96.10;;;;;;5026279;28;20199;-68
2023/03/01 08:32:38;;;;;;;19.80;14.68;;;3.80;96.00;;;;;;5020119;28;20271;-67
2023/03/01 08:35:05;;;;;;;19.40;14.30;;;3.20;95.70;;;;;;5024357;28;20294;-66
2023/03/01 08:37:32;;;;;;;20.17;13.75;;;4.00;96.10;;;;;;5024571;28;20187;-65
2023/03/01 08:39:58;;;;;;;20.35;15.57;;;3.40;95.40;;;;;;5020219;28;20259;-65
2023/03/01 08:42:24;;;;;;;20.80;15.60;;;4.10;95.30;;;;;;5023004;28;20643;-67
2023/03/01 08:44:49;;;;;;;20.17;14.80;;;4.50;95.40;;;;;;5027141;28;20463;-65
2023/03/01 08:47:15;;;;;;;20.43;15.70;;;4.10;95.40;;;;;;5026659;28;20194;-66
2023/03/01 08:49:40;;;;;;;19.63;15.67;;;3.60;94.90;;;;;;5023845;28;20223;-67
2023/03/01 08:52:06;;;;;;;20.80;15.20;;;3.50;94.70;;;;;;5025030;28;20289;-67
2023/03/01 08:54:32;;;;;;;19.63;15.50;;;4.50;94.80;;;;;;5022920;28;20216;-66
2023/03/01 08:56:58;;;;;;;19.10;14.90;;;5.00;94.10;;;;;;5026468;28;20282;-64
2023/03/01 08:59:25;;;;;;;18.10;14.85;;;6.50;93.00;;;;;;5027160;28;20282;-68
2023/03/01 09:01:51;;;;;;;17.45;13.82;;;7.80;89.80;;;;;;5028292;28;20175;-67
2023/03/01 09:04:16;;;;;;;18.40;14.37;;;8.90;84.40;;;;;;5025333;28;20197;-67
2023/03/01 09:06:43;;;;;;;20.27;16.20;;;9.20;80.30;;;;;;5027303;28;20551;-67
2023/03/01 09:09:15;;;;;;;21.48;15.02;;;9.60;77.90;;;;;;5019656;28;20240;-66
2023/03/01 09:11:41;;;;;;;20.58;14.60;;;9.70;76.30;;;;;;5025542;28;20680;-68
2023/03/01 09:14:07;;;;;;;19.63;15.70;;;9.60;76.00;;;;;;5024815;28;20702;-68
2023/03/01 09:16:35;;;;;;;18.20;15.40;;;10.20;74.50;;;;;;5027681;28;20184;-71
2023/03/01 09:19:01;;;;;;;16.75;14.90;;;10.00;73.80;;;;;;5032213;28;20213;-68
2023/03/01 09:21:27;;;;;;;19.15;15.30;;;9.20;75.50;;;;;;5027630;28;20325;-66
2023/03/01 09:23:53;;;;;;;21.00;16.10;;;8.60;77.00;;;;;;5026374;28;20723;-66
2023/03/01 09:26:22;;;;;;;20.87;16.10;;;8.40;78.60;;;;;;5030627;28;20861;-64
2023/03/01 09:28:50;;;;;;;18.67;14.40;;;8.20;79.40;;;;;;5023650;28;20253;-66
2023/03/01 09:31:18;;;;;;;21.25;15.45;;;7.90;80.30;;;;;;5023355;28;20186;-67
2023/03/01 09:33:47;;;;;;;23.73;17.27;;;7.50;81.40;;;;;;5029633;28;20567;-69
2023/03/01 09:36:18;;;;;;;18.90;15.55;;;7.40;82.00;;;;;;5031733;28;20264;-70
2023/03/01 09:38:45;;;;;;;18.67;14.98;;;8.90;79.60;;;;;;5029634;28;20213;-69
2023/03/01 09:41:16;;;;;;;17.23;13.77;;;9.00;77.90;;;;;;5027416;28;20636;-65
2023/03/01 09:43:53;;;;;;;20.27;15.25;;;10.20;74.60;;;;;;5027976;28;20668;-65
2023/03/01 09:46:21;;;;;;;18.65;14.77;;;10.50;71.30;;;;;;5024438;28;20658;-66
2023/03/01 09:48:50;;;;;;;20.75;15.95;;;10.90;70.00;;;;;;5026844;28;20673;-66
2023/03/01 09:51:23;;;;;;;18.88;15.57;;;11.50;68.10;;;;;;5027986;28;20534;-65
2023/03/01 09:53:49;;;;;;;22.60;16.95;;;11.90;66.90;;;;;;5026924;28;20309;-66
2023/03/01 09:56:39;;;;;;;19.93;15.43;;;11.90;64.70;;;;;;5031435;28;20348;-66
2023/03/01 09:59:28;;;;;;;21.15;15.93;;;11.50;64.10;;;;;;5029922;28;20304;-65
2023/03/01 10:02:21;;;;;;;22.25;16.60;;;11.60;63.50;;;;;;5027067;28;20212;-65
2023/03/01 10:04:52;;;;;;;19.67;16.20;;;11.30;64.20;;;;;;5028930;28;20208;-67
2023/03/01 10:07:24;;;;;;;20.63;16.95;;;11.10;65.50;;;;;;5024084;28;20609;-65
2023/03/01 10:09:49;;;;;;;17.48;14.70;;;11.30;65.10;;;;;;5030509;28;20202;-65
2023/03/01 10:12:26;;;;;;;26.00;18.33;;;12.30;62.80;;;;;;5028358;28;20186;-65
2023/03/01 10:15:11;;;;;;;15.10;13.27;;;12.20;60.20;;;;;;5030141;28;20201;-65
2023/03/01 10:17:44;;;;;;;18.30;14.38;;;11.80;60.60;;;;;;5017951;28;20549;-66
2023/03/01 10:20:25;;;;;;;17.45;13.85;;;11.60;61.20;;;;;;5020902;28;20339;-66
2023/03/01 10:22:54;;;;;;;19.17;15.52;;;11.90;60.20;;;;;;5031193;28;20186;-66
2023/03/01 10:25:43;;;;;;;17.92;14.43;;;12.20;60.60;;;;;;5024689;28;20628;-67
2023/03/01 10:28:41;;;;;;;16.35;14.63;;;12.50;59.60;;;;;;5026306;28;20293;-66
2023/03/01 10:31:14;;;;;;;16.77;14.32;;;12.80;58.20;;;;;;5026956;28;20641;-66
2023/03/01 10:33:41;;;;;;;17.55;15.65;;;13.60;57.70;;;;;;5022497;28;20268;-70
2023/03/01 10:36:07;;;;;;;21.67;15.65;;;13.00;56.50;;;;;;5029356;28;20210;-69
2023/03/01 10:38:55;;;;;;;20.92;16.90;;;12.00;58.70;;;;;;5026190;28;20210;-67
2023/03/01 10:41:25;;;;;;;18.38;15.40;;;11.70;60.60;;;;;;5025906;28;20210;-69
2023/03/01 10:43:53;;;;;;;19.23;15.15;;;12.10;59.20;;;;;;5025823;28;20178;-66
2023/03/01 10:46:26;;;;;;;23.95;14.45;;;12.10;59.20;;;;;;5028401;28;20273;-70
2023/03/01 10:49:14;;;;;;;16.73;14.63;;;13.10;58.00;;;;;;5024831;28;20222;-68
2023/03/01 10:51:43;;;;;;;18.02;15.18;;;13.70;57.20;;;;;;5024753;28;20205;-66
2023/03/01 10:54:19;;;;;;;17.23;13.82;;;13.50;56.10;;;;;;5023036;28;20748;-67
2023/03/01 10:56:56;;;;;;;16.10;12.98;;;13.30;55.80;;;;;;5026446;28;20777;-68
2023/03/01 10:59:36;;;;;;;17.52;14.52;;;12.60;56.50;;;;;;5027739;28;20197;-67
2023/03/01 11:02:04;;;;;;;16.00;14.30;;;12.40;57.10;;;;;;5026371;28;20212;-68
2023/03/01 11:04:30;;;;;;;17.10;15.07;;;12.30;57.30;;;;;;5023263;28;20193;-67
2023/03/01 11:07:00;;;;;;;19.07;15.83;;;12.20;57.30;;;;;;5027567;28;20190;-67
2023/03/01 11:09:31;;;;;;;19.30;16.30;;;12.60;57.60;;;;;;5024643;28;20201;-69
2023/03/01 11:12:00;;;;;;;17.77;14.73;;;12.80;57.30;;;;;;5024257;28;20488;-68
2023/03/01 11:14:45;;;;;;;17.20;14.48;;;13.50;56.00;;;;;;5024597;28;20202;-71
2023/03/01 11:17:32;;;;;;;15.80;13.80;;;13.50;55.90;;;;;;5026721;28;20182;-68
2023/03/01 11:20:26;;;;;;;16.95;14.90;;;13.70;55.60;;;;;;5027759;28;20198;-69
2023/03/01 11:23:02;;;;;;;15.73;14.13;;;13.40;55.30;;;;;;5024538;28;20198;-69
2023/03/01 11:25:39;;;;;;;21.25;15.45;;;13.30;55.60;;;;;;5025883;28;20218;-67
2023/03/01 11:28:07;;;;;;;17.00;14.10;;;13.20;55.10;;;;;;5025880;28;20209;-67
2023/03/01 11:31:05;;;;;;;15.38;13.75;;;13.20;55.50;;;;;;5027061;28;20243;-69
2023/03/01 11:33:49;;;;;;;16.98;13.90;;;13.10;55.50;;;;;;5026435;28;20222;-69
2023/03/01 11:36:29;;;;;;;16.13;14.38;;;13.50;55.50;;;;;;5027550;28;20178;-69
2023/03/01 11:38:56;;;;;;;16.25;13.18;;;13.40;55.70;;;;;;5020524;28;20289;-69
2023/03/01 11:41:28;;;;;;;16.40;14.10;;;13.20;55.50;;;;;;5023328;28;21457;-71
2023/03/01 11:44:15;;;;;;;19.15;15.68;;;12.70;56.50;;;;;;5024833;28;20190;-68
2023/03/01 11:46:57;;;;;;;16.63;13.60;;;11.70;57.80;;;;;;5026137;28;20263;-69
2023/03/01 11:50:06;;;;;;;16.85;13.57;;;12.00;57.70;;;;;;5025652;28;20202;-69
2023/03/01 11:52:49;;;;;;;14.75;13.25;;;12.50;57.60;;;;;;5061400;28;20227;-69
2023/03/01 11:55:37;;;;;;;18.52;14.15;;;12.40;57.50;;;;;;5064149;28;20209;-70
2023/03/01 11:58:03;;;;;;;15.95;13.57;;;12.40;56.80;;;;;;5026824;28;20210;-70
2023/03/01 12:01:05;;;;;;;18.50;14.47;;;12.20;57.10;;;;;;5024309;28;20183;-69
2023/03/01 12:04:00;;;;;;;17.65;13.90;;;12.00;58.00;;;;;;5023366;28;20678;-68
2023/03/01 12:06:43;;;;;;;17.95;14.85;;;11.80;58.00;;;;;;5023970;28;20603;-69
2023/03/01 12:09:27;;;;;;;17.63;13.70;;;11.70;58.60;;;;;;5020244;28;20277;-69
2023/03/01 12:12:25;;;;;;;16.55;13.10;;;11.70;59.30;;;;;;5022994;28;20190;-69
2023/03/01 12:15:11;;;;;;;18.67;16.40;;;11.50;59.40;;;;;;5019801;28;20981;-67
2023/03/01 12:17:40;;;;;;;14.95;13.40;;;11.30;59.60;;;;;;5025970;28;20213;-69
2023/03/01 12:20:21;;;;;;;18.85;14.88;;;11.10;60.00;;;;;;5023852;28;20188;-68
2023/03/01 12:23:32;;;;;;;15.40;12.65;;;11.10;61.20;;;;;;5026809;28;20185;-68
2023/03/01 12:26:14;;;;;;;16.52;13.23;;;10.80;60.20;;;;;;5017897;28;20196;-71
2023/03/01 12:29:01;;;;;;;15.23;13.40;;;11.20;59.90;;;;;;5024717;28;20248;-70
2023/03/01 12:31:35;;;;;;;20.38;13.60;;;10.90;60.40;;;;;;5025774;28;20176;-72
2023/03/01 12:34:07;;;;;;;16.92;14.15;;;11.10;60.80;;;;;;5026666;28;20223;-71
2023/03/01 12:37:00;;;;;;;15.60;12.90;;;11.00;61.40;;;;;;5026837;28;20192;-70
2023/03/01 12:39:44;;;;;;;15.02;11.88;;;11.10;61.50;;;;;;5024073;28;20204;-71
2023/03/01 12:42:41;;;;;;;14.57;12.80;;;10.90;61.10;;;;;;5028172;28;20192;-70
2023/03/01 12:45:32;;;;;;;14.90;12.00;;;10.60;61.60;;;;;;5026959;28;20204;-70
2023/03/01 12:48:19;;;;;;;15.68;12.82;;;10.50;62.20;;;;;;5026038;28;20219;-70